sensor_id;sensor_type;location;lat;lon;timestamp;temperature;humidity
41457;DHT22;27197;51.752;5.220;2023-09-08T00:02:30;26.30;69.30
41457;DHT22;27197;51.752;5.220;2023-09-08T00:05:00;26.30;68.30
41457;DHT22;27197;51.752;5.220;2023-09-08T00:07:34;26.30;69.20
41457;DHT22;27197;51.752;5.220;2023-09-08T00:10:03;26.30;69.30
41457;DHT22;27197;51.752;5.220;2023-09-08T00:12:38;26.30;69.20
41457;DHT22;27197;51.752;5.220;2023-09-08T00:17:45;26.20;69.10
41457;DHT22;27197;51.752;5.220;2023-09-08T00:20:20;26.30;69.20
41457;DHT22;27197;51.752;5.220;2023-09-08T00:22:50;26.30;69.20
41457;DHT22;27197;51.752;5.220;2023-09-08T00:25:24;26.30;69.90
41457;DHT22;27197;51.752;5.220;2023-09-08T00:27:54;26.20;69.10
41457;DHT22;27197;51.752;5.220;2023-09-08T00:30:31;26.30;68.80
41457;DHT22;27197;51.752;5.220;2023-09-08T00:33:00;26.20;69.10
41457;DHT22;27197;51.752;5.220;2023-09-08T00:35:34;26.20;69.00
41457;DHT22;27197;51.752;5.220;2023-09-08T00:38:04;26.20;69.10
41457;DHT22;27197;51.752;5.220;2023-09-08T00:40:38;26.20;68.40
41457;DHT22;27197;51.752;5.220;2023-09-08T00:43:07;26.20;69.00
41457;DHT22;27197;51.752;5.220;2023-09-08T00:45:42;26.20;69.00
41457;DHT22;27197;51.752;5.220;2023-09-08T00:48:14;26.20;68.10
41457;DHT22;27197;51.752;5.220;2023-09-08T00:50:46;26.20;69.00
41457;DHT22;27197;51.752;5.220;2023-09-08T00:53:18;26.20;68.90
41457;DHT22;27197;51.752;5.220;2023-09-08T00:55:50;26.20;69.60
41457;DHT22;27197;51.752;5.220;2023-09-08T00:58:23;26.20;69.00
41457;DHT22;27197;51.752;5.220;2023-09-08T01:00:59;26.20;69.00
41457;DHT22;27197;51.752;5.220;2023-09-08T01:03:28;26.20;68.90
41457;DHT22;27197;51.752;5.220;2023-09-08T01:06:00;26.20;68.90
41457;DHT22;27197;51.752;5.220;2023-09-08T01:08:32;26.20;68.90
41457;DHT22;27197;51.752;5.220;2023-09-08T01:11:06;26.20;68.90
41457;DHT22;27197;51.752;5.220;2023-09-08T01:13:38;26.20;68.90
41457;DHT22;27197;51.752;5.220;2023-09-08T01:16:08;26.10;68.90
41457;DHT22;27197;51.752;5.220;2023-09-08T01:18:42;26.20;68.90
41457;DHT22;27197;51.752;5.220;2023-09-08T01:26:57;26.20;69.50
41457;DHT22;27197;51.752;5.220;2023-09-08T01:29:29;26.10;68.80
41457;DHT22;27197;51.752;5.220;2023-09-08T01:32:00;26.10;68.80
41457;DHT22;27197;51.752;5.220;2023-09-08T01:34:31;26.10;68.80
41457;DHT22;27197;51.752;5.220;2023-09-08T01:37:06;26.10;68.80
41457;DHT22;27197;51.752;5.220;2023-09-08T01:39:39;26.10;68.10
41457;DHT22;27197;51.752;5.220;2023-09-08T01:42:12;26.10;68.80
41457;DHT22;27197;51.752;5.220;2023-09-08T01:44:45;26.10;68.80
41457;DHT22;27197;51.752;5.220;2023-09-08T01:47:16;26.10;68.80
41457;DHT22;27197;51.752;5.220;2023-09-08T01:49:50;26.10;68.70
41457;DHT22;27197;51.752;5.220;2023-09-08T01:52:22;26.10;68.70
41457;DHT22;27197;51.752;5.220;2023-09-08T01:54:58;26.10;68.70
41457;DHT22;27197;51.752;5.220;2023-09-08T01:57:27;26.10;68.70
41457;DHT22;27197;51.752;5.220;2023-09-08T02:00:00;26.10;68.60
41457;DHT22;27197;51.752;5.220;2023-09-08T02:20:52;26.10;68.70
41457;DHT22;27197;51.752;5.220;2023-09-08T02:23:29;26.10;68.60
41457;DHT22;27197;51.752;5.220;2023-09-08T02:26:00;26.10;68.60
41457;DHT22;27197;51.752;5.220;2023-09-08T02:28:33;26.00;68.50
41457;DHT22;27197;51.752;5.220;2023-09-08T02:31:03;26.10;68.50
41457;DHT22;27197;51.752;5.220;2023-09-08T02:33:35;26.00;68.50
41457;DHT22;27197;51.752;5.220;2023-09-08T02:36:06;26.10;68.50
41457;DHT22;27197;51.752;5.220;2023-09-08T02:38:38;26.10;68.40
41457;DHT22;27197;51.752;5.220;2023-09-08T02:41:09;26.10;68.40
41457;DHT22;27197;51.752;5.220;2023-09-08T02:43:40;26.00;68.30
41457;DHT22;27197;51.752;5.220;2023-09-08T02:46:10;26.00;68.20
41457;DHT22;27197;51.752;5.220;2023-09-08T02:48:43;26.00;67.60
41457;DHT22;27197;51.752;5.220;2023-09-08T02:51:13;26.00;68.10
41457;DHT22;27197;51.752;5.220;2023-09-08T02:53:47;26.00;68.10
41457;DHT22;27197;51.752;5.220;2023-09-08T02:56:17;26.00;68.00
41457;DHT22;27197;51.752;5.220;2023-09-08T02:58:51;26.00;67.90
41457;DHT22;27197;51.752;5.220;2023-09-08T03:01:21;26.00;67.70
41457;DHT22;27197;51.752;5.220;2023-09-08T03:03:53;25.90;67.60
41457;DHT22;27197;51.752;5.220;2023-09-08T03:06:23;26.00;67.60
41457;DHT22;27197;51.752;5.220;2023-09-08T03:08:56;26.00;67.50
41457;DHT22;27197;51.752;5.220;2023-09-08T03:11:25;26.00;67.50
41457;DHT22;27197;51.752;5.220;2023-09-08T03:13:54;26.00;67.60
41457;DHT22;27197;51.752;5.220;2023-09-08T03:16:23;26.00;67.20
41457;DHT22;27197;51.752;5.220;2023-09-08T03:18:54;26.00;67.10
41457;DHT22;27197;51.752;5.220;2023-09-08T03:21:29;26.00;67.00
41457;DHT22;27197;51.752;5.220;2023-09-08T03:23:57;26.00;67.00
41457;DHT22;27197;51.752;5.220;2023-09-08T03:26:27;26.00;66.80
41457;DHT22;27197;51.752;5.220;2023-09-08T03:29:02;25.90;66.60
41457;DHT22;27197;51.752;5.220;2023-09-08T03:31:32;25.90;66.70
41457;DHT22;27197;51.752;5.220;2023-09-08T03:34:08;25.90;66.70
41457;DHT22;27197;51.752;5.220;2023-09-08T03:36:41;25.90;66.80
41457;DHT22;27197;51.752;5.220;2023-09-08T03:39:14;25.90;66.90
41457;DHT22;27197;51.752;5.220;2023-09-08T03:41:44;25.90;67.00
41457;DHT22;27197;51.752;5.220;2023-09-08T03:44:14;25.90;67.00
41457;DHT22;27197;51.752;5.220;2023-09-08T03:46:44;25.90;67.10
41457;DHT22;27197;51.752;5.220;2023-09-08T03:49:13;25.90;67.20
41457;DHT22;27197;51.752;5.220;2023-09-08T03:51:44;25.90;67.30
41457;DHT22;27197;51.752;5.220;2023-09-08T03:54:17;25.90;67.30
41457;DHT22;27197;51.752;5.220;2023-09-08T03:56:52;25.90;67.40
41457;DHT22;27197;51.752;5.220;2023-09-08T03:59:23;25.90;67.40
41457;DHT22;27197;51.752;5.220;2023-09-08T04:01:58;25.90;67.50
41457;DHT22;27197;51.752;5.220;2023-09-08T04:04:29;25.90;67.40
41457;DHT22;27197;51.752;5.220;2023-09-08T04:07:01;25.90;68.00
41457;DHT22;27197;51.752;5.220;2023-09-08T04:09:30;25.90;67.30
41457;DHT22;27197;51.752;5.220;2023-09-08T04:12:02;25.90;67.20
41457;DHT22;27197;51.752;5.220;2023-09-08T04:14:32;25.90;67.10
41457;DHT22;27197;51.752;5.220;2023-09-08T04:17:08;25.90;67.00
41457;DHT22;27197;51.752;5.220;2023-09-08T04:19:37;25.90;66.90
41457;DHT22;27197;51.752;5.220;2023-09-08T04:22:11;25.90;66.80
41457;DHT22;27197;51.752;5.220;2023-09-08T04:24:41;25.90;66.70
41457;DHT22;27197;51.752;5.220;2023-09-08T04:27:16;25.80;66.50
41457;DHT22;27197;51.752;5.220;2023-09-08T04:29:46;25.90;66.60
41457;DHT22;27197;51.752;5.220;2023-09-08T04:32:20;25.90;66.40
41457;DHT22;27197;51.752;5.220;2023-09-08T04:34:49;25.80;66.30
41457;DHT22;27197;51.752;5.220;2023-09-08T04:37:23;25.90;66.20
41457;DHT22;27197;51.752;5.220;2023-09-08T04:39:52;25.80;65.90
41457;DHT22;27197;51.752;5.220;2023-09-08T04:42:28;25.80;65.70
41457;DHT22;27197;51.752;5.220;2023-09-08T04:44:56;25.80;65.40
41457;DHT22;27197;51.752;5.220;2023-09-08T04:47:31;25.80;65.30
41457;DHT22;27197;51.752;5.220;2023-09-08T04:50:00;25.80;65.40
41457;DHT22;27197;51.752;5.220;2023-09-08T05:19:46;25.80;67.60
41457;DHT22;27197;51.752;5.220;2023-09-08T05:22:22;25.80;67.70
41457;DHT22;27197;51.752;5.220;2023-09-08T05:24:53;25.80;67.70
41457;DHT22;27197;51.752;5.220;2023-09-08T05:27:24;25.80;67.60
41457;DHT22;27197;51.752;5.220;2023-09-08T05:29:53;25.70;63.60
41457;DHT22;27197;51.752;5.220;2023-09-08T05:32:28;25.70;66.80
41457;DHT22;27197;51.752;5.220;2023-09-08T05:35:03;25.70;68.00
41457;DHT22;27197;51.752;5.220;2023-09-08T05:37:34;25.70;69.10
41457;DHT22;27197;51.752;5.220;2023-09-08T05:40:05;25.80;70.40
41457;DHT22;27197;51.752;5.220;2023-09-08T05:42:38;25.80;68.70
41457;DHT22;27197;51.752;5.220;2023-09-08T05:45:12;25.80;68.40
41457;DHT22;27197;51.752;5.220;2023-09-08T05:47:47;25.80;68.20
41457;DHT22;27197;51.752;5.220;2023-09-08T05:50:17;25.80;68.60
41457;DHT22;27197;51.752;5.220;2023-09-08T05:52:48;25.90;73.10
41457;DHT22;27197;51.752;5.220;2023-09-08T05:55:19;25.90;76.10
41457;DHT22;27197;51.752;5.220;2023-09-08T05:57:55;25.90;75.50
41457;DHT22;27197;51.752;5.220;2023-09-08T06:00:24;25.90;74.60
41457;DHT22;27197;51.752;5.220;2023-09-08T06:02:53;25.90;73.70
41457;DHT22;27197;51.752;5.220;2023-09-08T06:05:28;25.90;73.10
41457;DHT22;27197;51.752;5.220;2023-09-08T06:07:58;25.90;72.50
41457;DHT22;27197;51.752;5.220;2023-09-08T06:10:32;25.90;71.60
41457;DHT22;27197;51.752;5.220;2023-09-08T06:13:07;25.80;71.30
41457;DHT22;27197;51.752;5.220;2023-09-08T06:15:36;25.80;70.60
41457;DHT22;27197;51.752;5.220;2023-09-08T06:18:06;25.80;70.10
41457;DHT22;27197;51.752;5.220;2023-09-08T06:20:47;25.80;70.00
41457;DHT22;27197;51.752;5.220;2023-09-08T06:23:11;25.80;70.10
41457;DHT22;27197;51.752;5.220;2023-09-08T06:25:44;25.80;70.30
41457;DHT22;27197;51.752;5.220;2023-09-08T06:28:19;25.80;68.40
41457;DHT22;27197;51.752;5.220;2023-09-08T06:30:48;25.50;67.10
41457;DHT22;27197;51.752;5.220;2023-09-08T06:33:22;25.50;67.80
41457;DHT22;27197;51.752;5.220;2023-09-08T06:35:52;25.40;68.10
41457;DHT22;27197;51.752;5.220;2023-09-08T06:38:23;25.30;68.30
41457;DHT22;27197;51.752;5.220;2023-09-08T06:40:54;25.40;68.40
41457;DHT22;27197;51.752;5.220;2023-09-08T06:43:28;25.40;68.50
41457;DHT22;27197;51.752;5.220;2023-09-08T06:45:58;25.40;68.50
41457;DHT22;27197;51.752;5.220;2023-09-08T06:48:32;25.40;68.70
41457;DHT22;27197;51.752;5.220;2023-09-08T06:51:03;25.40;68.80
41457;DHT22;27197;51.752;5.220;2023-09-08T06:53:33;25.40;69.00
41457;DHT22;27197;51.752;5.220;2023-09-08T06:56:04;25.50;69.10
41457;DHT22;27197;51.752;5.220;2023-09-08T06:58:35;25.40;69.10
41457;DHT22;27197;51.752;5.220;2023-09-08T07:01:05;25.40;69.10
41457;DHT22;27197;51.752;5.220;2023-09-08T07:03:39;25.30;67.60
41457;DHT22;27197;51.752;5.220;2023-09-08T07:06:08;25.10;67.40
41457;DHT22;27197;51.752;5.220;2023-09-08T07:08:38;25.00;66.90
41457;DHT22;27197;51.752;5.220;2023-09-08T07:11:08;25.00;67.00
41457;DHT22;27197;51.752;5.220;2023-09-08T07:13:38;24.90;66.60
41457;DHT22;27197;51.752;5.220;2023-09-08T07:16:13;24.90;66.60
41457;DHT22;27197;51.752;5.220;2023-09-08T07:18:42;24.90;66.70
41457;DHT22;27197;51.752;5.220;2023-09-08T07:21:16;24.90;66.60
41457;DHT22;27197;51.752;5.220;2023-09-08T07:23:48;24.90;66.10
41457;DHT22;27197;51.752;5.220;2023-09-08T07:26:22;24.80;66.30
41457;DHT22;27197;51.752;5.220;2023-09-08T07:28:52;24.80;66.80
41457;DHT22;27197;51.752;5.220;2023-09-08T07:31:24;24.80;67.60
41457;DHT22;27197;51.752;5.220;2023-09-08T07:33:58;24.90;67.60
41457;DHT22;27197;51.752;5.220;2023-09-08T07:36:32;24.90;68.20
41457;DHT22;27197;51.752;5.220;2023-09-08T07:39:02;24.90;68.30
41457;DHT22;27197;51.752;5.220;2023-09-08T07:41:33;24.90;67.20
41457;DHT22;27197;51.752;5.220;2023-09-08T07:44:06;24.80;68.20
41457;DHT22;27197;51.752;5.220;2023-09-08T07:46:36;24.90;68.80
41457;DHT22;27197;51.752;5.220;2023-09-08T07:49:11;24.80;67.60
41457;DHT22;27197;51.752;5.220;2023-09-08T07:51:42;24.80;68.90
41457;DHT22;27197;51.752;5.220;2023-09-08T07:54:12;24.80;68.80
41457;DHT22;27197;51.752;5.220;2023-09-08T07:56:45;24.90;69.10
41457;DHT22;27197;51.752;5.220;2023-09-08T07:59:15;24.80;69.10
41457;DHT22;27197;51.752;5.220;2023-09-08T08:01:49;24.90;69.20
41457;DHT22;27197;51.752;5.220;2023-09-08T08:04:17;24.90;69.10
41457;DHT22;27197;51.752;5.220;2023-09-08T08:06:49;24.90;69.10
41457;DHT22;27197;51.752;5.220;2023-09-08T08:09:24;24.90;69.20
41457;DHT22;27197;51.752;5.220;2023-09-08T08:11:55;24.90;69.10
41457;DHT22;27197;51.752;5.220;2023-09-08T08:14:29;24.90;69.10
41457;DHT22;27197;51.752;5.220;2023-09-08T08:16:58;24.90;69.10
41457;DHT22;27197;51.752;5.220;2023-09-08T08:19:29;24.90;69.00
41457;DHT22;27197;51.752;5.220;2023-09-08T08:24:47;24.90;69.10
41457;DHT22;27197;51.752;5.220;2023-09-08T08:27:21;24.90;69.20
41457;DHT22;27197;51.752;5.220;2023-09-08T08:29:50;24.90;69.20
41457;DHT22;27197;51.752;5.220;2023-09-08T08:32:25;24.90;69.10
41457;DHT22;27197;51.752;5.220;2023-09-08T08:34:55;24.90;69.10
41457;DHT22;27197;51.752;5.220;2023-09-08T08:37:26;24.90;69.10
41457;DHT22;27197;51.752;5.220;2023-09-08T08:39:56;25.00;69.40
41457;DHT22;27197;51.752;5.220;2023-09-08T08:42:31;25.10;69.00
41457;DHT22;27197;51.752;5.220;2023-09-08T08:45:04;25.00;70.10
41457;DHT22;27197;51.752;5.220;2023-09-08T08:47:34;25.00;69.10
41457;DHT22;27197;51.752;5.220;2023-09-08T08:50:05;25.00;69.40
41457;DHT22;27197;51.752;5.220;2023-09-08T08:52:40;25.00;69.20
41457;DHT22;27197;51.752;5.220;2023-09-08T08:55:08;25.00;69.20
41457;DHT22;27197;51.752;5.220;2023-09-08T08:57:43;25.00;69.30
41457;DHT22;27197;51.752;5.220;2023-09-08T09:00:13;25.00;69.00
41457;DHT22;27197;51.752;5.220;2023-09-08T09:02:52;25.00;69.00
41457;DHT22;27197;51.752;5.220;2023-09-08T09:05:23;25.00;69.10
41457;DHT22;27197;51.752;5.220;2023-09-08T09:07:57;25.00;69.20
41457;DHT22;27197;51.752;5.220;2023-09-08T09:10:29;25.00;69.40
41457;DHT22;27197;51.752;5.220;2023-09-08T09:13:05;25.10;69.10
41457;DHT22;27197;51.752;5.220;2023-09-08T09:15:34;25.00;68.40
41457;DHT22;27197;51.752;5.220;2023-09-08T09:18:07;25.00;67.70
41457;DHT22;27197;51.752;5.220;2023-09-08T09:20:36;24.90;66.90
41457;DHT22;27197;51.752;5.220;2023-09-08T09:23:06;24.80;66.10
41457;DHT22;27197;51.752;5.220;2023-09-08T09:25:35;24.80;65.60
41457;DHT22;27197;51.752;5.220;2023-09-08T09:28:09;24.80;65.10
41457;DHT22;27197;51.752;5.220;2023-09-08T09:30:50;24.70;64.90
41457;DHT22;27197;51.752;5.220;2023-09-08T09:33:25;24.70;64.60
41457;DHT22;27197;51.752;5.220;2023-09-08T09:35:55;24.70;64.20
41457;DHT22;27197;51.752;5.220;2023-09-08T09:38:29;24.70;63.80
41457;DHT22;27197;51.752;5.220;2023-09-08T09:40:59;24.70;63.50
41457;DHT22;27197;51.752;5.220;2023-09-08T09:43:29;24.70;63.50
41457;DHT22;27197;51.752;5.220;2023-09-08T09:46:02;24.70;63.40
41457;DHT22;27197;51.752;5.220;2023-09-08T09:48:33;24.70;63.10
41457;DHT22;27197;51.752;5.220;2023-09-08T09:51:20;24.80;63.10
41457;DHT22;27197;51.752;5.220;2023-09-08T09:53:52;24.70;62.80
41457;DHT22;27197;51.752;5.220;2023-09-08T09:56:27;24.80;62.60
41457;DHT22;27197;51.752;5.220;2023-09-08T09:59:02;24.70;62.50
41457;DHT22;27197;51.752;5.220;2023-09-08T10:01:36;24.80;62.80
41457;DHT22;27197;51.752;5.220;2023-09-08T10:04:07;24.80;62.60
41457;DHT22;27197;51.752;5.220;2023-09-08T10:06:39;24.80;63.50
41457;DHT22;27197;51.752;5.220;2023-09-08T10:09:09;24.80;62.90
41457;DHT22;27197;51.752;5.220;2023-09-08T10:11:49;24.80;62.30
41457;DHT22;27197;51.752;5.220;2023-09-08T10:14:22;24.80;61.90
41457;DHT22;27197;51.752;5.220;2023-09-08T10:16:59;24.80;62.10
41457;DHT22;27197;51.752;5.220;2023-09-08T10:19:29;24.80;62.00
41457;DHT22;27197;51.752;5.220;2023-09-08T10:22:05;24.90;61.90
41457;DHT22;27197;51.752;5.220;2023-09-08T10:24:37;24.80;62.20
41457;DHT22;27197;51.752;5.220;2023-09-08T10:27:07;24.80;62.20
41457;DHT22;27197;51.752;5.220;2023-09-08T10:29:43;24.80;62.50
41457;DHT22;27197;51.752;5.220;2023-09-08T10:32:13;24.80;62.40
41457;DHT22;27197;51.752;5.220;2023-09-08T10:34:45;24.80;62.60
41457;DHT22;27197;51.752;5.220;2023-09-08T10:37:21;24.70;62.70
41457;DHT22;27197;51.752;5.220;2023-09-08T10:39:50;24.80;62.50
41457;DHT22;27197;51.752;5.220;2023-09-08T10:42:27;24.70;62.30
41457;DHT22;27197;51.752;5.220;2023-09-08T10:45:02;24.70;62.30
41457;DHT22;27197;51.752;5.220;2023-09-08T10:47:56;24.80;62.40
41457;DHT22;27197;51.752;5.220;2023-09-08T10:50:34;24.90;62.90
41457;DHT22;27197;51.752;5.220;2023-09-08T10:53:09;24.90;63.00
41457;DHT22;27197;51.752;5.220;2023-09-08T10:55:44;24.90;63.40
41457;DHT22;27197;51.752;5.220;2023-09-08T10:58:34;25.00;63.60
41457;DHT22;27197;51.752;5.220;2023-09-08T11:01:12;25.00;63.60
41457;DHT22;27197;51.752;5.220;2023-09-08T11:06:31;25.10;65.80
41457;DHT22;27197;51.752;5.220;2023-09-08T11:09:10;25.10;66.20
41457;DHT22;27197;51.752;5.220;2023-09-08T11:11:43;25.20;66.40
41457;DHT22;27197;51.752;5.220;2023-09-08T11:14:17;25.30;66.70
41457;DHT22;27197;51.752;5.220;2023-09-08T11:16:55;25.30;67.00
41457;DHT22;27197;51.752;5.220;2023-09-08T11:19:42;25.30;67.00
41457;DHT22;27197;51.752;5.220;2023-09-08T11:21:57;25.30;66.70
41457;DHT22;27197;51.752;5.220;2023-09-08T11:24:31;25.30;65.90
41457;DHT22;27197;51.752;5.220;2023-09-08T11:27:04;25.40;66.90
41457;DHT22;27197;51.752;5.220;2023-09-08T11:29:36;25.30;64.90
41457;DHT22;27197;51.752;5.220;2023-09-08T11:32:09;25.20;64.40
41457;DHT22;27197;51.752;5.220;2023-09-08T11:34:41;25.20;63.50
41457;DHT22;27197;51.752;5.220;2023-09-08T11:37:17;25.30;63.40
41457;DHT22;27197;51.752;5.220;2023-09-08T11:39:52;25.20;62.80
41457;DHT22;27197;51.752;5.220;2023-09-08T11:42:23;25.10;63.10
41457;DHT22;27197;51.752;5.220;2023-09-08T11:45:00;25.10;62.60
41457;DHT22;27197;51.752;5.220;2023-09-08T11:47:31;25.10;62.90
41457;DHT22;27197;51.752;5.220;2023-09-08T11:50:09;25.20;63.50
41457;DHT22;27197;51.752;5.220;2023-09-08T11:52:48;25.20;62.00
41457;DHT22;27197;51.752;5.220;2023-09-08T11:55:18;25.20;61.40
41457;DHT22;27197;51.752;5.220;2023-09-08T11:57:52;25.20;61.90
41457;DHT22;27197;51.752;5.220;2023-09-08T12:00:26;25.10;61.40
41457;DHT22;27197;51.752;5.220;2023-09-08T12:03:11;25.10;61.70
41457;DHT22;27197;51.752;5.220;2023-09-08T12:05:44;25.20;61.60
41457;DHT22;27197;51.752;5.220;2023-09-08T12:08:16;25.30;63.90
41457;DHT22;27197;51.752;5.220;2023-09-08T12:10:50;25.30;61.50
41457;DHT22;27197;51.752;5.220;2023-09-08T12:13:25;25.30;61.60
41457;DHT22;27197;51.752;5.220;2023-09-08T12:15:56;25.20;61.70
41457;DHT22;27197;51.752;5.220;2023-09-08T12:18:41;25.20;61.30
41457;DHT22;27197;51.752;5.220;2023-09-08T12:21:12;25.30;62.40
41457;DHT22;27197;51.752;5.220;2023-09-08T12:23:52;25.30;62.20
41457;DHT22;27197;51.752;5.220;2023-09-08T12:26:24;25.30;63.00
41457;DHT22;27197;51.752;5.220;2023-09-08T12:28:59;25.20;63.40
41457;DHT22;27197;51.752;5.220;2023-09-08T12:31:29;25.20;62.50
41457;DHT22;27197;51.752;5.220;2023-09-08T12:34:04;25.10;62.10
41457;DHT22;27197;51.752;5.220;2023-09-08T12:36:34;25.00;61.50
41457;DHT22;27197;51.752;5.220;2023-09-08T12:39:11;25.00;61.60
41457;DHT22;27197;51.752;5.220;2023-09-08T12:41:39;24.90;60.70
41457;DHT22;27197;51.752;5.220;2023-09-08T12:44:10;24.80;61.30
41457;DHT22;27197;51.752;5.220;2023-09-08T12:46:39;24.80;61.50
41457;DHT22;27197;51.752;5.220;2023-09-08T12:49:12;24.80;60.90
41457;DHT22;27197;51.752;5.220;2023-09-08T12:51:41;24.90;60.60
41457;DHT22;27197;51.752;5.220;2023-09-08T12:54:15;25.00;60.70
41457;DHT22;27197;51.752;5.220;2023-09-08T12:56:47;25.00;63.00
41457;DHT22;27197;51.752;5.220;2023-09-08T12:59:18;25.00;63.50
41457;DHT22;27197;51.752;5.220;2023-09-08T13:01:48;25.10;63.40
41457;DHT22;27197;51.752;5.220;2023-09-08T13:04:20;25.20;63.10
41457;DHT22;27197;51.752;5.220;2023-09-08T13:06:49;25.20;61.50
41457;DHT22;27197;51.752;5.220;2023-09-08T13:09:24;25.40;65.20
41457;DHT22;27197;51.752;5.220;2023-09-08T13:11:53;25.50;61.30
41457;DHT22;27197;51.752;5.220;2023-09-08T13:14:21;25.30;61.80
41457;DHT22;27197;51.752;5.220;2023-09-08T13:16:51;25.20;61.70
41457;DHT22;27197;51.752;5.220;2023-09-08T13:19:25;25.10;63.20
41457;DHT22;27197;51.752;5.220;2023-09-08T13:21:55;25.10;62.50
41457;DHT22;27197;51.752;5.220;2023-09-08T13:24:26;25.20;62.50
41457;DHT22;27197;51.752;5.220;2023-09-08T13:26:59;25.20;62.80
41457;DHT22;27197;51.752;5.220;2023-09-08T13:29:30;25.20;63.20
41457;DHT22;27197;51.752;5.220;2023-09-08T13:32:01;25.20;61.70
41457;DHT22;27197;51.752;5.220;2023-09-08T13:34:32;25.10;62.00
41457;DHT22;27197;51.752;5.220;2023-09-08T13:37:03;25.20;62.00
41457;DHT22;27197;51.752;5.220;2023-09-08T13:39:37;25.20;62.40
41457;DHT22;27197;51.752;5.220;2023-09-08T13:42:06;25.10;62.80
41457;DHT22;27197;51.752;5.220;2023-09-08T13:44:42;25.10;61.90
41457;DHT22;27197;51.752;5.220;2023-09-08T13:47:11;25.10;64.00
41457;DHT22;27197;51.752;5.220;2023-09-08T13:49:42;25.10;61.80
41457;DHT22;27197;51.752;5.220;2023-09-08T13:52:13;25.10;62.50
41457;DHT22;27197;51.752;5.220;2023-09-08T13:54:45;25.20;63.80
41457;DHT22;27197;51.752;5.220;2023-09-08T13:57:17;25.40;62.80
41457;DHT22;27197;51.752;5.220;2023-09-08T13:59:49;25.70;63.10
41457;DHT22;27197;51.752;5.220;2023-09-08T14:02:20;25.80;62.90
41457;DHT22;27197;51.752;5.220;2023-09-08T14:04:51;26.00;62.60
41457;DHT22;27197;51.752;5.220;2023-09-08T14:07:22;26.10;63.20
41457;DHT22;27197;51.752;5.220;2023-09-08T14:09:56;26.20;69.60
41457;DHT22;27197;51.752;5.220;2023-09-08T14:12:28;26.40;63.80
41457;DHT22;27197;51.752;5.220;2023-09-08T14:14:57;26.40;63.70
41457;DHT22;27197;51.752;5.220;2023-09-08T14:17:27;26.40;64.20
41457;DHT22;27197;51.752;5.220;2023-09-08T14:19:59;26.60;72.00
41457;DHT22;27197;51.752;5.220;2023-09-08T14:22:35;26.60;66.80
41457;DHT22;27197;51.752;5.220;2023-09-08T14:25:08;26.60;64.60
41457;DHT22;27197;51.752;5.220;2023-09-08T14:27:37;26.60;65.10
41457;DHT22;27197;51.752;5.220;2023-09-08T14:30:09;26.90;70.70
41457;DHT22;27197;51.752;5.220;2023-09-08T14:32:45;26.90;66.10
41457;DHT22;27197;51.752;5.220;2023-09-08T14:35:17;26.90;66.20
41457;DHT22;27197;51.752;5.220;2023-09-08T14:37:50;27.00;68.40
41457;DHT22;27197;51.752;5.220;2023-09-08T14:40:19;27.10;67.80
41457;DHT22;27197;51.752;5.220;2023-09-08T14:42:50;27.00;67.30
41457;DHT22;27197;51.752;5.220;2023-09-08T14:45:25;26.90;67.60
41457;DHT22;27197;51.752;5.220;2023-09-08T14:47:54;26.90;67.90
41457;DHT22;27197;51.752;5.220;2023-09-08T14:50:26;26.90;68.30
41457;DHT22;27197;51.752;5.220;2023-09-08T14:52:59;27.00;69.10
41457;DHT22;27197;51.752;5.220;2023-09-08T14:55:29;27.10;70.30
41457;DHT22;27197;51.752;5.220;2023-09-08T14:58:07;27.20;69.80
41457;DHT22;27197;51.752;5.220;2023-09-08T15:00:39;27.20;68.40
41457;DHT22;27197;51.752;5.220;2023-09-08T15:03:13;27.10;68.30
41457;DHT22;27197;51.752;5.220;2023-09-08T15:05:41;27.10;68.60
41457;DHT22;27197;51.752;5.220;2023-09-08T15:08:16;27.10;68.80
41457;DHT22;27197;51.752;5.220;2023-09-08T15:10:45;27.10;69.00
41457;DHT22;27197;51.752;5.220;2023-09-08T15:13:18;27.10;69.10
41457;DHT22;27197;51.752;5.220;2023-09-08T15:15:53;27.20;70.50
41457;DHT22;27197;51.752;5.220;2023-09-08T15:18:25;27.20;70.30
41457;DHT22;27197;51.752;5.220;2023-09-08T15:20:56;27.30;68.80
41457;DHT22;27197;51.752;5.220;2023-09-08T15:23:31;27.30;69.10
41457;DHT22;27197;51.752;5.220;2023-09-08T15:26:00;27.20;69.30
41457;DHT22;27197;51.752;5.220;2023-09-08T15:28:32;27.20;69.50
41457;DHT22;27197;51.752;5.220;2023-09-08T15:31:06;27.20;69.60
41457;DHT22;27197;51.752;5.220;2023-09-08T15:33:37;27.20;69.90
41457;DHT22;27197;51.752;5.220;2023-09-08T15:36:09;27.20;70.00
41457;DHT22;27197;51.752;5.220;2023-09-08T15:38:45;27.30;70.40
41457;DHT22;27197;51.752;5.220;2023-09-08T15:41:20;27.30;69.90
41457;DHT22;27197;51.752;5.220;2023-09-08T15:43:51;27.30;69.90
41457;DHT22;27197;51.752;5.220;2023-09-08T15:46:22;27.30;70.10
41457;DHT22;27197;51.752;5.220;2023-09-08T15:48:55;27.30;70.10
41457;DHT22;27197;51.752;5.220;2023-09-08T15:51:25;27.30;70.30
41457;DHT22;27197;51.752;5.220;2023-09-08T15:54:00;27.30;70.30
41457;DHT22;27197;51.752;5.220;2023-09-08T15:56:30;27.30;70.50
41457;DHT22;27197;51.752;5.220;2023-09-08T15:59:01;27.30;70.70
41457;DHT22;27197;51.752;5.220;2023-09-08T16:01:30;27.20;70.80
41457;DHT22;27197;51.752;5.220;2023-09-08T16:04:00;27.20;71.80
41457;DHT22;27197;51.752;5.220;2023-09-08T16:06:31;27.20;71.20
41457;DHT22;27197;51.752;5.220;2023-09-08T16:09:02;27.30;71.10
41457;DHT22;27197;51.752;5.220;2023-09-08T16:11:34;27.30;71.10
41457;DHT22;27197;51.752;5.220;2023-09-08T16:14:08;27.20;71.20
41457;DHT22;27197;51.752;5.220;2023-09-08T16:16:40;27.30;71.30
41457;DHT22;27197;51.752;5.220;2023-09-08T16:19:11;27.30;71.60
41457;DHT22;27197;51.752;5.220;2023-09-08T16:21:41;27.30;71.60
41457;DHT22;27197;51.752;5.220;2023-09-08T16:24:15;27.40;71.60
41457;DHT22;27197;51.752;5.220;2023-09-08T16:26:43;27.40;71.60
41457;DHT22;27197;51.752;5.220;2023-09-08T16:29:14;27.40;71.70
41457;DHT22;27197;51.752;5.220;2023-09-08T16:31:45;27.30;71.90
41457;DHT22;27197;51.752;5.220;2023-09-08T16:34:14;27.30;72.00
41457;DHT22;27197;51.752;5.220;2023-09-08T16:36:44;27.30;72.10
41457;DHT22;27197;51.752;5.220;2023-09-08T16:39:14;27.30;72.20
41457;DHT22;27197;51.752;5.220;2023-09-08T16:41:48;27.40;72.20
41457;DHT22;27197;51.752;5.220;2023-09-08T16:44:18;27.40;72.20
41457;DHT22;27197;51.752;5.220;2023-09-08T16:46:48;27.50;72.20
41457;DHT22;27197;51.752;5.220;2023-09-08T16:49:20;27.50;72.20
41457;DHT22;27197;51.752;5.220;2023-09-08T16:51:52;27.50;72.10
41457;DHT22;27197;51.752;5.220;2023-09-08T16:54:26;27.60;72.20
41457;DHT22;27197;51.752;5.220;2023-09-08T16:56:55;27.70;72.10
41457;DHT22;27197;51.752;5.220;2023-09-08T16:59:30;27.60;72.00
41457;DHT22;27197;51.752;5.220;2023-09-08T17:01:59;27.70;72.30